METAR Data
IDs: Format: Raw Decoded Include TAF

Data at: 1042 UTC 26 Sep 2018

KOSU 261022Z AUTO 23008KT 10SM FEW032 BKN090 21/21 A2991 RMK AO2 RAE21 P0001 T02110206
KOSU 260953Z AUTO 22008KT 7SM VCTS -RA FEW008 BKN033 OVC065 21/21 A2990 RMK AO2 LTG DSNT NE RAB13 TSB21E53 SLP117 P0037 T02110206
KOSU 260949Z AUTO 22008KT 7SM -TSRA SCT008 BKN031 OVC060 21/21 A2990 RMK AO2 LTG DSNT NE RAB13 TSB21 P0037
KOSU 260940Z AUTO 23010KT 3SM -TSRA BR SCT008 BKN013 OVC035 21/21 A2989 RMK AO2 LTG DSNT NE RAB13 TSB21 P0036 T02110206
KOSU 260933Z AUTO 22010KT 1SM +TSRA BR SCT007 BKN014 OVC048 21/21 A2990 RMK AO2 LTG DSNT SW AND NW RAB13 TSB21 P0036 T02110206
KOSU 260925Z AUTO 20011G17KT 1SM +TSRA BR BKN009 BKN036 OVC070 22/21 A2990 RMK AO2 LTG DSNT SW AND NW RAB13 TSB21 P0022 T02170211
KOSU 260922Z AUTO 21008KT 1 3/4SM +TSRA BR SCT011 BKN036 OVC070 22/21 A2991 RMK AO2 LTG DSNT SW AND NW RAB13 TSB21 P0010 T02170211
KOSU 260853Z AUTO 20007KT 10SM SCT015 OVC080 22/21 A2989 RMK AO2 LTG DSNT SW SLP116 60001 T02220206 55010
KOSU 260803Z AUTO 21010KT 10SM OVC015 22/21 A2991 RMK AO2 T02220211
KOSU 260753Z AUTO 21011KT 10SM OVC014 22/21 A2992 RMK AO2 SLP123 T02220211
KOSU 260653Z AUTO 19007KT 10SM OVC012 22/21 A2993 RMK AO2 RAE11 SLP127 P0001 T02220211
KOSU 260553Z AUTO 19007KT 8SM -RA BKN012 BKN020 OVC026 22/21 A2993 RMK AO2 RAB44 SLP130 P0001 60002 T02220211 10244 20217 58016
KOSU 260532Z AUTO 20009KT 10SM BKN014 OVC019 22/21 A2994 RMK AO2 T02220211
KOSU 260453Z AUTO 18007KT 10SM FEW019 BKN025 OVC031 22/21 A2995 RMK AO2 RAB0355E19 SLP137 P0001 T02220211 402440200
KOSU 260353Z AUTO 18008KT 9SM FEW041 BKN065 BKN090 22/21 A2997 RMK AO2 SLP142 T02220211
KOSU 260253Z 20007KT 10SM FEW014 23/21 A2998 RMK AO2 SLP146 T02280211 53003
KOSU 260153Z 18009KT 10SM FEW034 23/21 A2996 RMK AO2 SLP139 T02330211
KOSU 260053Z 19011G17KT 10SM SCT021 BKN030 24/21 A2997 RMK AO2 SLP141 T02390211
KOSU 252353Z 18009KT 10SM SCT027 BKN039 OVC080 24/22 A2997 RMK AO2 RAB08E40 SLP143 P0000 60000 T02390217 10244 20222 55002
KOSU 252253Z 17009KT 10SM FEW022 BKN030 OVC037 24/22 A2997 RMK AO2 SLP142 T02390217
KOSU 252153Z 14006KT 10SM BKN023 BKN030 OVC041 24/22 A2996 RMK AO2 SLP139 T02390217
KOSU 252053Z 18009KT 10SM BKN018 24/21 A2998 RMK AO2 SLP146 60000 T02390211 56028
KOSU 251953Z 19011KT 10SM OVC016 24/22 A3000 RMK AO2 SLP151 T02390217
KOSU 251853Z 18005KT 10SM OVC016 23/22 A3004 RMK AO2 RAB19E31 SLP165 P0000 T02280217
KOSU 251753Z 18008KT 9SM OVC014 22/21 A3006 RMK AO2 SLP175 60024 T02220211 10228 20200 55001
KOSU 251653Z 20008KT 10SM OVC012 22/21 A3006 RMK AO2 SLP173 T02220211
KOSU 251553Z 20010G16KT 10SM OVC011 22/21 A3006 RMK AO2 SLP174 T02170206
KOSU 251533Z 19008KT 10SM OVC011 21/20 A3007 RMK AO2 T02110200
KOSU 251453Z 17008KT 9SM OVC009 21/20 A3007 RMK AO2 RAE11 SLP177 P0002 60024 T02060200 53000
KOSU 251406Z 17009KT 5SM -RA BR SCT007 BKN021 OVC025 21/20 A3007 RMK AO2 LTG DSNT E P0002 T02060200
KOSU 251353Z 17010KT 2SM +RA BR SCT007 BKN012 OVC027 20/19 A3007 RMK AO2 VIS 1V5 SLP178 P0020 T02000194
KOSU 251322Z 18010KT 2SM RA BR BKN007 OVC012 20/19 A3007 RMK AO2 P0005 T02000194
KOSU 251320Z 18010KT 1 3/4SM -RA BR BKN007 OVC012 20/19 A3007 RMK AO2 CIG 005V009 P0004 T02000194
KOSU 251254Z 17008KT 3SM -RA BR BKN009 OVC012 20/19 A3006 RMK AO2 P0000 T02000194
KOSU 251249Z 16008KT 2 1/2SM RA BR BKN009 OVC012 20/19 A3006 RMK AO2 VIS 1 1/4V5 RAB43 CIG 005V011 SLP175 P0002 T02000194
KOSU 251248Z 16009KT 2 1/2SM +RA BR BKN009 OVC012 20/19 A3006 RMK AO2 VIS 1 1/4V5 RAB43 CIG 005V011 P0002
KOSU 251239Z 17008KT 10SM OVC010 20/19 A3007 RMK AO2 LTG DSNT NW CIG 006V013 T02000194
KOSU 251153Z 18008KT 9SM OVC008 20/19 A3007 RMK AO2 CIG 006V012 SLP177 60003 70109 T02000194 10200 20200 52004
KOSU 251053Z 17008KT 9SM BKN006 OVC013 20/19 A3007 RMK AO2 RAB09E21 CIG 005V009 SLP177 P0000 T02000194
KOSU 251000Z AUTO 16007KT 9SM OVC009 20/19 A3006 RMK AO2 CIG 005V013 T02000194
KOSU 250953Z AUTO 16008KT 9SM OVC011 20/19 A3006 RMK AO2 SLP173 T02000194
KOSU 250853Z AUTO 17008KT 9SM BKN006 OVC011 20/19 A3005 RMK AO2 CIG 005V009 SLP171 60003 T02000194 58004
KOSU 250753Z AUTO 16011KT 10SM BKN007 OVC016 20/19 A3005 RMK AO2 RAB17E27 CIG 005V010 SLP172 P0001 T02000189
KOSU 250653Z AUTO 17008KT 10SM OVC008 20/19 A3006 RMK AO2 RAE26 CIG 005V010 SLP176 P0002 T02000189
KOSU 250553Z AUTO 19009KT 5SM -RA BR OVC006 20/19 A3006 RMK AO2 CIG 005V010 SLP175 P0008 60037 T02000194 10206 20200 58002
KOSU 250453Z AUTO 17011KT 8SM -RA BKN007 OVC014 20/19 A3007 RMK AO2 CIG 004V010 SLP177 P0004 T02000194 402060150
KOSU 250353Z AUTO 17010G18KT 3SM RA BR BKN008 OVC012 20/19 A3007 RMK AO2 CIG 004V010 SLP179 P0004 T02000194
KOSU 250253Z 15012KT 9SM -RA BKN007 OVC012 20/19 A3007 RMK AO2 PK WND 15026/0220 CIG 004V012 SLP179 P0008 60021 T02000194 55002
KOSU 250156Z 14012G18KT 4SM RA BR BKN007 OVC017 20/19 A3006 RMK AO2 CIG 004V012 P0001 T02000194
KOSU 250153Z 15010G18KT 3SM -RA BR SCT009 BKN012 OVC026 20/19 A3007 RMK AO2 SLP177 P0010 T02000194
KOSU 250053Z 17014G19KT 6SM -RA BR FEW006 BKN012 OVC017 20/19 A3007 RMK AO2 SLP180 P0003 T02000194
KOSU 250051Z 16008G19KT 5SM -RA BR FEW006 SCT012 OVC017 20/19 A3007 RMK AO2 P0003
KOSU 242353Z 14009KT 4SM -RA BR BKN009 BKN012 OVC021 20/19 A3007 RMK AO2 SLP180 P0005 60029 T02000194 10206 20194 58004
KOSU 242253Z 16010KT 8SM -RA OVC004 21/19 A3008 RMK AO2 SLP183 P0002 T02060194